createdAt,value
2018-10-06T00:01:15.918Z,76.40
2018-10-06T00:03:44.157Z,76.30
2018-10-06T00:06:12.175Z,76.50
2018-10-06T00:08:40.251Z,76.10
2018-10-06T00:11:08.323Z,76.50
2018-10-06T00:13:36.354Z,76.50
2018-10-06T00:16:04.696Z,76.20
2018-10-06T00:18:32.731Z,76.30
2018-10-06T00:21:00.826Z,76.40
2018-10-06T00:23:28.892Z,76.50
2018-10-06T00:25:56.910Z,76.60
2018-10-06T00:28:24.969Z,76.80
2018-10-06T00:30:53.112Z,77.10
2018-10-06T00:33:21.175Z,77.30
2018-10-06T00:35:49.215Z,77.50
2018-10-06T00:38:17.247Z,77.60
2018-10-06T00:40:45.269Z,78.10
2018-10-06T00:43:13.458Z,78.40
2018-10-06T00:45:41.875Z,78.70
2018-10-06T00:48:09.908Z,79.00
2018-10-06T00:50:37.930Z,79.30
2018-10-06T00:53:06.558Z,79.20
2018-10-06T00:55:34.574Z,79.30
2018-10-06T00:58:02.600Z,79.30
2018-10-06T01:00:30.650Z,79.20
2018-10-06T01:02:58.672Z,79.30
2018-10-06T01:05:26.695Z,79.40
2018-10-06T01:07:55.202Z,79.40
2018-10-06T01:10:23.230Z,80.10
2018-10-06T01:12:51.263Z,79.20
2018-10-06T01:15:19.344Z,78.90
2018-10-06T01:17:47.388Z,79.10
2018-10-06T01:20:15.591Z,78.70
2018-10-06T01:22:44.125Z,78.50
2018-10-06T01:25:12.194Z,78.80
2018-10-06T01:27:40.271Z,78.80
2018-10-06T01:30:08.383Z,78.90
2018-10-06T01:32:36.421Z,79.10
2018-10-06T01:35:04.506Z,79.00
2018-10-06T01:37:32.554Z,80.10
2018-10-06T01:40:00.606Z,79.80
2018-10-06T01:42:28.655Z,80.10
2018-10-06T01:44:56.702Z,80.10
2018-10-06T01:47:24.933Z,80.20
2018-10-06T01:49:52.965Z,80.50
2018-10-06T01:52:21.287Z,80.50
2018-10-06T01:54:49.323Z,80.50
2018-10-06T01:57:17.359Z,80.40
2018-10-06T01:59:45.411Z,80.40
2018-10-06T02:02:13.483Z,80.50
2018-10-06T02:04:41.616Z,80.70
2018-10-06T02:07:09.705Z,80.80
2018-10-06T02:09:37.788Z,81.30
2018-10-06T02:12:06.115Z,81.60
2018-10-06T02:14:34.342Z,81.50
2018-10-06T02:17:02.478Z,81.80
2018-10-06T02:19:30.542Z,82.00
2018-10-06T02:21:58.734Z,82.00
2018-10-06T02:24:26.775Z,82.10
2018-10-06T02:26:54.800Z,82.50
2018-10-06T02:29:23.183Z,82.70
2018-10-06T02:31:51.235Z,82.90
2018-10-06T02:34:19.448Z,82.80
2018-10-06T02:36:47.526Z,83.10
2018-10-06T02:39:15.681Z,83.40
2018-10-06T02:41:43.746Z,83.50
2018-10-06T02:44:11.810Z,83.40
2018-10-06T02:46:39.841Z,83.20
2018-10-06T02:49:08.179Z,83.70
2018-10-06T02:51:36.274Z,84.10
2018-10-06T02:54:04.295Z,84.30
2018-10-06T02:56:32.353Z,85.10
2018-10-06T02:59:01.675Z,84.40
2018-10-06T03:01:29.759Z,84.00
2018-10-06T03:03:57.940Z,83.90
2018-10-06T03:06:26.183Z,84.20
2018-10-06T03:08:54.447Z,83.80
2018-10-06T03:11:22.558Z,84.30
2018-10-06T03:13:50.947Z,83.90
2018-10-06T03:16:18.975Z,83.80
2018-10-06T03:18:47.018Z,84.00
2018-10-06T03:21:15.348Z,84.20
2018-10-06T03:23:43.366Z,84.40
2018-10-06T03:26:11.392Z,83.90
2018-10-06T03:28:39.411Z,84.50
2018-10-06T03:31:07.459Z,84.50
2018-10-06T03:33:35.479Z,84.60
2018-10-06T03:36:05.029Z,85.00
2018-10-06T03:38:33.062Z,84.90
2018-10-06T03:41:01.136Z,84.60
2018-10-06T03:43:29.189Z,84.30
2018-10-06T03:45:57.201Z,84.40
2018-10-06T03:48:25.280Z,84.50
2018-10-06T03:50:53.684Z,84.90
2018-10-06T03:53:21.704Z,84.80
2018-10-06T03:55:49.999Z,85.00
2018-10-06T03:58:18.446Z,85.20
2018-10-06T04:00:46.449Z,85.30
2018-10-06T04:03:14.592Z,85.70
2018-10-06T04:05:42.927Z,85.90
2018-10-06T04:08:10.985Z,85.90
2018-10-06T04:10:39.088Z,85.90
2018-10-06T04:13:07.707Z,86.30
2018-10-06T04:15:35.727Z,87.20
2018-10-06T04:18:03.758Z,86.50
2018-10-06T04:20:31.796Z,86.50
2018-10-06T04:22:59.796Z,86.70
2018-10-06T04:25:27.843Z,86.80
2018-10-06T04:27:56.326Z,86.80
2018-10-06T04:30:24.379Z,87.50
2018-10-06T04:32:52.463Z,87.50
2018-10-06T04:35:20.531Z,87.50
2018-10-06T04:37:48.531Z,87.00
2018-10-06T04:40:16.683Z,87.20
2018-10-06T04:42:44.786Z,87.00
2018-10-06T04:45:12.805Z,87.10
2018-10-06T04:47:40.865Z,87.70
2018-10-06T04:50:08.891Z,86.90
2018-10-06T04:52:37.217Z,86.60
2018-10-06T04:55:05.398Z,86.40
2018-10-06T04:57:33.473Z,86.20
2018-10-06T05:00:01.562Z,85.80
2018-10-06T05:02:29.557Z,85.90
2018-10-06T05:04:57.803Z,85.70
2018-10-06T05:07:25.846Z,85.80
2018-10-06T05:09:53.914Z,85.80
2018-10-06T05:12:21.926Z,85.90
2018-10-06T05:14:49.965Z,85.60
2018-10-06T05:17:17.989Z,86.20
2018-10-06T05:19:46.370Z,86.00
2018-10-06T05:22:14.394Z,85.30
2018-10-06T05:24:42.578Z,85.50
2018-10-06T05:27:10.845Z,85.60
2018-10-06T05:29:38.994Z,85.70
2018-10-06T05:32:07.047Z,85.50
2018-10-06T05:34:35.168Z,84.90
2018-10-06T05:37:03.367Z,84.40
2018-10-06T05:39:31.375Z,84.10
2018-10-06T05:41:59.602Z,83.90
2018-10-06T05:44:27.645Z,83.90
2018-10-06T05:46:55.649Z,83.70
2018-10-06T05:49:23.678Z,82.00
2018-10-06T05:51:52.035Z,78.00
2018-10-06T05:54:20.249Z,73.80
2018-10-06T05:56:48.538Z,69.60
2018-10-06T05:59:17.427Z,66.20
2018-10-06T06:01:45.598Z,64.00
2018-10-06T06:04:14.059Z,61.40
2018-10-06T06:06:43.059Z,58.90
2018-10-06T06:09:11.143Z,57.90
2018-10-06T06:11:39.212Z,56.90
2018-10-06T06:14:07.593Z,55.60
2018-10-06T06:16:36.578Z,54.60
2018-10-06T06:19:04.858Z,53.10
2018-10-06T06:21:32.856Z,51.60
2018-10-06T06:24:01.801Z,50.20
2018-10-06T06:26:29.888Z,49.00
2018-10-06T06:28:57.953Z,48.70
2018-10-06T06:31:26.080Z,48.30
2018-10-06T06:33:54.306Z,48.20
2018-10-06T06:36:22.405Z,47.80
2018-10-06T06:38:50.438Z,47.40
2018-10-06T06:41:18.460Z,46.80
2018-10-06T06:43:46.501Z,46.50
2018-10-06T06:46:14.535Z,45.30
2018-10-06T06:48:42.578Z,44.00
2018-10-06T06:51:10.682Z,43.60
2018-10-06T06:53:38.658Z,42.40
2018-10-06T06:56:07.170Z,41.50
2018-10-06T06:58:35.323Z,42.70
2018-10-06T07:01:03.432Z,43.50
2018-10-06T07:03:31.606Z,42.20
2018-10-06T07:05:59.638Z,42.70
2018-10-06T07:08:28.734Z,42.60
2018-10-06T07:10:56.802Z,42.00
2018-10-06T07:13:25.323Z,42.30
2018-10-06T07:15:53.346Z,41.30
2018-10-06T07:18:21.876Z,40.60
2018-10-06T07:20:50.360Z,40.40
2018-10-06T07:23:18.388Z,39.20
2018-10-06T07:25:46.678Z,38.10
2018-10-06T07:28:14.703Z,37.90
2018-10-06T07:30:42.740Z,37.80
2018-10-06T07:33:10.889Z,38.40
2018-10-06T07:35:39.206Z,37.40
2018-10-06T07:38:07.333Z,37.20
2018-10-06T07:40:35.359Z,36.60
2018-10-06T07:43:03.403Z,36.40
2018-10-06T07:45:31.425Z,34.90
2018-10-06T07:47:59.718Z,34.20
2018-10-06T07:50:27.754Z,33.00
2018-10-06T07:52:55.978Z,32.30
2018-10-06T07:55:24.035Z,30.20
2018-10-06T07:57:52.249Z,30.90
2018-10-06T08:00:20.366Z,31.50
2018-10-06T08:02:48.762Z,31.30
2018-10-06T08:05:16.768Z,31.30
2018-10-06T08:07:44.786Z,31.20
2018-10-06T08:10:13.171Z,30.50
2018-10-06T08:12:41.202Z,31.20
2018-10-06T08:15:09.374Z,30.70
2018-10-06T08:17:37.611Z,30.30
2018-10-06T08:20:05.666Z,30.00
2018-10-06T08:22:33.751Z,29.90
2018-10-06T08:25:01.937Z,29.80
2018-10-06T08:27:29.970Z,30.00
2018-10-06T08:29:58.251Z,29.70
2018-10-06T08:32:26.422Z,29.30
2018-10-06T08:34:54.480Z,29.70
2018-10-06T08:37:22.539Z,29.60
2018-10-06T08:39:50.601Z,29.80
2018-10-06T08:42:18.750Z,29.30
2018-10-06T08:44:46.749Z,28.30
2018-10-06T08:47:15.289Z,27.80
2018-10-06T08:49:43.503Z,27.60
2018-10-06T08:52:11.594Z,28.20
2018-10-06T08:54:39.936Z,28.40
2018-10-06T08:57:08.058Z,28.20
2018-10-06T08:59:36.306Z,27.80
2018-10-06T09:02:04.402Z,27.50
2018-10-06T09:04:32.419Z,27.60
2018-10-06T09:07:00.454Z,27.60
2018-10-06T09:09:28.731Z,28.20
2018-10-06T09:11:57.223Z,28.20
2018-10-06T09:14:25.238Z,28.20
2018-10-06T09:16:53.358Z,28.20
2018-10-06T09:19:21.371Z,28.10
2018-10-06T09:21:49.351Z,27.40
2018-10-06T09:24:17.485Z,26.90
2018-10-06T09:26:45.506Z,27.80
2018-10-06T09:29:13.574Z,27.60
2018-10-06T09:31:41.570Z,27.30
2018-10-06T09:34:09.609Z,27.40
2018-10-06T09:36:37.643Z,27.60
2018-10-06T09:39:07.031Z,27.40
2018-10-06T09:41:35.082Z,27.80
2018-10-06T09:44:03.214Z,27.70
2018-10-06T09:46:31.306Z,27.60
2018-10-06T09:48:59.389Z,27.60
2018-10-06T09:51:27.537Z,28.60
2018-10-06T09:53:55.864Z,28.40
2018-10-06T09:56:23.892Z,28.10
2018-10-06T09:58:52.146Z,28.80
2018-10-06T10:01:26.216Z,28.70
2018-10-06T10:03:59.984Z,28.90
2018-10-06T10:06:28.133Z,28.80
2018-10-06T10:08:56.165Z,28.40
2018-10-06T10:11:24.258Z,28.30
2018-10-06T10:13:52.493Z,28.70
2018-10-06T10:16:20.547Z,29.10
2018-10-06T10:18:48.630Z,29.70
2018-10-06T10:21:16.938Z,30.60
2018-10-06T10:23:45.030Z,31.30
2018-10-06T10:26:13.062Z,32.10
2018-10-06T10:28:41.334Z,33.60
2018-10-06T10:31:09.462Z,34.40
2018-10-06T10:33:37.520Z,35.80
2018-10-06T10:36:05.795Z,36.60
2018-10-06T10:38:34.007Z,37.90
2018-10-06T10:41:02.051Z,38.70
2018-10-06T10:43:30.211Z,39.70
2018-10-06T10:45:58.238Z,40.80
2018-10-06T10:48:26.387Z,41.40
2018-10-06T10:50:54.402Z,41.90
2018-10-06T10:53:22.439Z,42.10
2018-10-06T10:55:50.460Z,42.40
2018-10-06T10:58:18.543Z,42.60
2018-10-06T11:00:46.559Z,42.90
2018-10-06T11:03:15.112Z,43.50
2018-10-06T11:05:43.239Z,43.70
2018-10-06T11:08:11.218Z,44.20
2018-10-06T11:10:40.332Z,43.90
2018-10-06T11:13:08.898Z,44.20
2018-10-06T11:15:36.916Z,44.40
2018-10-06T11:18:05.030Z,44.50
2018-10-06T11:20:33.172Z,44.50
2018-10-06T11:23:01.205Z,44.70
2018-10-06T11:25:29.778Z,44.40
2018-10-06T11:27:58.127Z,44.80
2018-10-06T11:30:26.321Z,44.80
2018-10-06T11:32:54.344Z,44.50
2018-10-06T11:35:22.416Z,44.90
2018-10-06T11:37:50.529Z,45.20
2018-10-06T11:40:18.435Z,44.70
2018-10-06T11:42:46.553Z,45.00
2018-10-06T11:45:14.552Z,45.00
2018-10-06T11:47:42.625Z,45.30
2018-10-06T11:50:11.294Z,45.50
2018-10-06T11:52:39.338Z,45.30
2018-10-06T11:55:07.379Z,45.30
2018-10-06T11:57:35.602Z,45.10
2018-10-06T12:00:03.790Z,45.00
2018-10-06T12:02:31.780Z,45.10
2018-10-06T12:05:00.015Z,45.00
2018-10-06T12:07:28.034Z,44.90
2018-10-06T12:09:56.046Z,44.90
2018-10-06T12:12:24.114Z,44.60
2018-10-06T12:14:52.212Z,44.20
2018-10-06T12:17:20.367Z,44.40
2018-10-06T12:19:48.791Z,44.90
2018-10-06T12:22:16.852Z,44.70
2018-10-06T12:24:44.899Z,44.80
2018-10-06T12:27:13.263Z,45.20
2018-10-06T12:29:41.439Z,44.90
2018-10-06T12:32:09.616Z,44.70
2018-10-06T12:34:37.672Z,44.40
2018-10-06T12:37:05.754Z,44.70
2018-10-06T12:39:33.826Z,45.00
2018-10-06T12:42:02.137Z,44.40
2018-10-06T12:44:31.050Z,44.50
2018-10-06T12:46:59.318Z,44.60
2018-10-06T12:49:27.582Z,44.70
2018-10-06T12:51:56.526Z,44.70
2018-10-06T12:54:24.724Z,44.60
2018-10-06T12:56:52.851Z,44.60
2018-10-06T12:59:20.950Z,44.30
2018-10-06T13:01:48.999Z,44.50
2018-10-06T13:04:17.095Z,44.70
2018-10-06T13:06:45.529Z,44.80
2018-10-06T13:09:13.540Z,44.60
2018-10-06T13:11:42.075Z,44.60
2018-10-06T13:14:10.086Z,44.70
2018-10-06T13:16:38.175Z,44.50
2018-10-06T13:19:06.646Z,44.30
2018-10-06T13:21:34.670Z,44.40
2018-10-06T13:24:02.706Z,44.10
2018-10-06T13:26:30.735Z,44.30
2018-10-06T13:28:58.771Z,44.10
2018-10-06T13:31:26.868Z,43.80
2018-10-06T13:33:55.086Z,44.00
2018-10-06T13:36:23.354Z,43.30
2018-10-06T13:38:51.373Z,43.20
2018-10-06T13:41:19.507Z,43.40
2018-10-06T13:43:47.526Z,43.30
2018-10-06T13:46:15.665Z,43.50
2018-10-06T13:48:43.922Z,43.20
2018-10-06T13:51:11.928Z,43.60
2018-10-06T13:53:39.973Z,43.70
2018-10-06T13:56:08.023Z,44.40
2018-10-06T13:58:36.171Z,43.80
2018-10-06T14:01:04.178Z,43.40
2018-10-06T14:03:32.448Z,43.60
2018-10-06T14:06:00.615Z,43.60
2018-10-06T14:08:29.713Z,43.90
2018-10-06T14:10:58.295Z,43.10
2018-10-06T14:13:26.461Z,43.20
2018-10-06T14:15:54.459Z,43.10
2018-10-06T14:18:22.726Z,43.30
2018-10-06T14:20:50.758Z,43.50
2018-10-06T14:23:18.770Z,44.10
2018-10-06T14:25:47.442Z,43.80
2018-10-06T14:28:15.606Z,43.90
2018-10-06T14:30:43.659Z,43.60
2018-10-06T14:33:11.700Z,43.80
2018-10-06T14:35:39.745Z,43.80
2018-10-06T14:38:07.925Z,43.80
2018-10-06T14:40:36.594Z,43.90
2018-10-06T14:43:04.645Z,43.80
2018-10-06T14:45:32.715Z,43.80
2018-10-06T14:48:01.059Z,43.80
2018-10-06T14:50:29.086Z,44.20
2018-10-06T14:52:57.134Z,44.10
2018-10-06T14:55:25.413Z,44.10
2018-10-06T14:57:53.482Z,45.10
2018-10-06T15:00:21.599Z,44.40
2018-10-06T15:02:50.044Z,45.00
2018-10-06T15:05:18.122Z,45.10
2018-10-06T15:07:46.142Z,45.20
2018-10-06T15:10:14.706Z,45.20
2018-10-06T15:12:42.694Z,45.40
2018-10-06T15:15:10.684Z,45.40
2018-10-06T15:17:38.879Z,45.60
2018-10-06T15:20:06.963Z,45.70
2018-10-06T15:22:35.473Z,45.70
2018-10-06T15:25:04.131Z,46.50
2018-10-06T15:27:32.318Z,46.70
2018-10-06T15:30:00.367Z,46.70
2018-10-06T15:32:28.456Z,47.70
2018-10-06T15:34:56.628Z,47.50
2018-10-06T15:37:24.647Z,47.70
2018-10-06T15:39:52.694Z,48.10
2018-10-06T15:42:21.089Z,48.80
2018-10-06T15:44:49.153Z,48.20
2018-10-06T15:47:18.426Z,48.80
2018-10-06T15:49:46.673Z,49.20
2018-10-06T15:52:14.755Z,49.30
2018-10-06T15:54:42.868Z,49.70
2018-10-06T15:57:10.923Z,49.50
2018-10-06T15:59:40.388Z,49.80
2018-10-06T16:02:08.771Z,50.10
2018-10-06T16:04:36.801Z,51.10
2018-10-06T16:07:04.805Z,52.00
2018-10-06T16:09:33.307Z,51.80
2018-10-06T16:12:01.767Z,51.90
2018-10-06T16:14:30.150Z,51.90
2018-10-06T16:16:58.194Z,52.00
2018-10-06T16:19:26.251Z,52.30
2018-10-06T16:21:54.255Z,52.40
2018-10-06T16:24:22.384Z,52.90
2018-10-06T16:26:50.377Z,53.30
2018-10-06T16:29:18.419Z,53.20
2018-10-06T16:31:46.645Z,54.30
2018-10-06T16:34:14.774Z,54.00
2018-10-06T16:36:42.762Z,54.40
2018-10-06T16:39:10.777Z,55.10
2018-10-06T16:41:38.794Z,55.10
2018-10-06T16:44:06.793Z,54.70
2018-10-06T16:46:35.503Z,55.40
2018-10-06T16:49:03.662Z,55.20
2018-10-06T16:51:31.879Z,55.60
2018-10-06T16:53:59.974Z,55.70
2018-10-06T16:56:27.990Z,56.20
2018-10-06T16:58:56.043Z,56.90
2018-10-06T17:01:24.322Z,56.80
2018-10-06T17:03:52.407Z,56.90
2018-10-06T17:06:20.621Z,57.50
2018-10-06T17:08:49.259Z,57.40
2018-10-06T17:11:17.438Z,57.60
2018-10-06T17:13:45.674Z,58.50
2018-10-06T17:16:14.182Z,58.30
2018-10-06T17:18:42.340Z,58.50
2018-10-06T17:21:10.275Z,58.70
2018-10-06T17:23:38.815Z,58.50
2018-10-06T17:26:06.834Z,58.80
2018-10-06T17:28:34.833Z,59.20
2018-10-06T17:31:03.073Z,59.00
2018-10-06T17:33:31.086Z,58.80
2018-10-06T17:35:59.073Z,59.10
2018-10-06T17:38:27.239Z,59.60
2018-10-06T17:40:55.550Z,59.60
2018-10-06T17:43:23.604Z,59.90
2018-10-06T17:45:51.950Z,60.40
2018-10-06T17:48:21.165Z,60.30
2018-10-06T17:50:49.590Z,60.40
2018-10-06T17:53:17.487Z,60.00
2018-10-06T17:55:45.602Z,60.50
2018-10-06T17:58:13.991Z,60.30
2018-10-06T18:00:42.010Z,60.40
2018-10-06T18:03:10.300Z,60.70
2018-10-06T18:05:38.678Z,60.20
2018-10-06T18:08:07.066Z,60.00
2018-10-06T18:10:35.220Z,60.00
2018-10-06T18:13:03.433Z,60.00
2018-10-06T18:15:31.643Z,59.80
2018-10-06T18:18:00.064Z,59.60
2018-10-06T18:20:28.429Z,59.70
2018-10-06T18:22:56.515Z,59.80
2018-10-06T18:25:24.544Z,60.00
2018-10-06T18:27:52.641Z,60.30
2018-10-06T18:30:20.734Z,60.30
2018-10-06T18:32:48.775Z,60.50
2018-10-06T18:35:16.829Z,60.50
2018-10-06T18:37:44.834Z,61.10
2018-10-06T18:40:12.863Z,61.10
2018-10-06T18:42:40.959Z,61.40
2018-10-06T18:45:08.974Z,62.00
2018-10-06T18:47:36.997Z,62.00
2018-10-06T18:50:05.259Z,62.40
2018-10-06T18:52:33.274Z,62.70
2018-10-06T18:55:01.430Z,62.30
2018-10-06T18:57:29.848Z,63.00
2018-10-06T18:59:57.921Z,62.90
2018-10-06T19:02:25.934Z,62.90
2018-10-06T19:04:54.048Z,63.00
2018-10-06T19:07:22.072Z,63.50
2018-10-06T19:09:50.108Z,63.30
2018-10-06T19:12:18.137Z,63.30
2018-10-06T19:14:46.306Z,63.60
2018-10-06T19:17:14.558Z,63.30
2018-10-06T19:19:42.621Z,63.40
2018-10-06T19:22:11.542Z,63.50
2018-10-06T19:24:39.620Z,63.70
2018-10-06T19:27:07.670Z,63.40
2018-10-06T19:29:35.664Z,63.60
2018-10-06T19:32:03.711Z,63.50
2018-10-06T19:34:32.118Z,63.70
2018-10-06T19:37:00.148Z,64.20
2018-10-06T19:39:28.193Z,63.20
2018-10-06T19:41:56.323Z,63.70
2018-10-06T19:44:24.411Z,63.50
2018-10-06T19:46:52.446Z,63.80
2018-10-06T19:49:20.742Z,63.80
2018-10-06T19:51:48.841Z,63.80
2018-10-06T19:54:16.930Z,64.20
2018-10-06T19:56:45.106Z,64.00
2018-10-06T19:59:13.167Z,64.40
2018-10-06T20:01:41.294Z,64.50
2018-10-06T20:04:09.574Z,64.60
2018-10-06T20:06:37.645Z,64.80
2018-10-06T20:09:07.750Z,65.00
2018-10-06T20:11:35.828Z,65.40
2018-10-06T20:14:03.833Z,65.60
2018-10-06T20:16:31.974Z,65.70
2018-10-06T20:19:00.139Z,65.90
2018-10-06T20:21:28.194Z,66.20
2018-10-06T20:23:56.540Z,67.30
2018-10-06T20:26:24.890Z,67.00
2018-10-06T20:28:52.924Z,67.10
2018-10-06T20:31:21.605Z,67.20
2018-10-06T20:33:49.714Z,67.20
2018-10-06T20:36:17.749Z,67.60
2018-10-06T20:38:45.801Z,67.80
2018-10-06T20:41:13.934Z,68.00
2018-10-06T20:43:41.991Z,68.10
2018-10-06T20:46:10.487Z,68.10
2018-10-06T20:48:38.814Z,68.40
2018-10-06T20:51:06.818Z,68.30
2018-10-06T20:53:35.058Z,68.20
2018-10-06T20:56:03.065Z,68.40
2018-10-06T20:58:31.218Z,67.90
2018-10-06T21:00:59.628Z,68.00
2018-10-06T21:03:27.709Z,68.60
2018-10-06T21:05:56.096Z,67.80
2018-10-06T21:08:24.343Z,67.70
2018-10-06T21:10:52.421Z,67.70
2018-10-06T21:13:20.527Z,67.90
2018-10-06T21:15:48.773Z,67.80
2018-10-06T21:18:16.790Z,67.60
2018-10-06T21:20:45.299Z,67.70
2018-10-06T21:23:13.506Z,67.60
2018-10-06T21:25:41.515Z,67.70
2018-10-06T21:28:09.659Z,67.80
2018-10-06T21:30:37.866Z,67.90
2018-10-06T21:33:06.006Z,67.90
2018-10-06T21:35:34.050Z,67.90
2018-10-06T21:38:02.510Z,68.10
2018-10-06T21:40:30.574Z,68.00
2018-10-06T21:42:58.601Z,68.20
2018-10-06T21:45:26.841Z,68.30
2018-10-06T21:47:54.861Z,68.10
2018-10-06T21:50:22.886Z,68.30
2018-10-06T21:52:51.367Z,68.20
2018-10-06T21:55:19.402Z,68.30
2018-10-06T21:57:47.407Z,68.30
2018-10-06T22:00:16.343Z,68.40
2018-10-06T22:02:44.596Z,68.40
2018-10-06T22:05:12.674Z,68.30
2018-10-06T22:07:40.921Z,68.10
2018-10-06T22:10:08.950Z,68.10
2018-10-06T22:12:36.941Z,68.10
2018-10-06T22:15:05.153Z,67.70
2018-10-06T22:17:33.134Z,67.70
2018-10-06T22:20:01.481Z,67.60
2018-10-06T22:22:29.786Z,67.30
2018-10-06T22:24:57.875Z,67.20
2018-10-06T22:27:26.111Z,67.10
2018-10-06T22:29:54.231Z,67.30
2018-10-06T22:32:22.232Z,67.40
2018-10-06T22:34:50.228Z,67.20
2018-10-06T22:37:18.293Z,67.00
2018-10-06T22:39:46.454Z,67.00
2018-10-06T22:42:14.460Z,67.10
2018-10-06T22:44:43.032Z,67.00
2018-10-06T22:47:11.042Z,67.10
2018-10-06T22:49:39.142Z,67.10
2018-10-06T22:52:07.284Z,67.00
2018-10-06T22:54:35.337Z,67.10
2018-10-06T22:57:03.426Z,67.20
2018-10-06T22:59:31.434Z,67.90
2018-10-06T23:01:59.509Z,67.30
2018-10-06T23:04:27.546Z,67.40
2018-10-06T23:06:56.059Z,67.40
2018-10-06T23:09:24.130Z,67.40
2018-10-06T23:11:52.250Z,67.30
2018-10-06T23:14:20.473Z,67.20
2018-10-06T23:16:48.478Z,67.70
2018-10-06T23:19:16.507Z,67.50
2018-10-06T23:21:45.511Z,67.70
2018-10-06T23:24:13.808Z,67.60
2018-10-06T23:26:41.822Z,67.80
2018-10-06T23:29:09.854Z,67.90
2018-10-06T23:31:37.934Z,68.10
2018-10-06T23:34:05.962Z,68.60
2018-10-06T23:36:34.551Z,69.10
2018-10-06T23:39:02.551Z,69.40
2018-10-06T23:41:30.578Z,69.60
2018-10-06T23:43:58.766Z,69.70
2018-10-06T23:46:26.880Z,70.30
2018-10-06T23:48:54.910Z,70.40
2018-10-06T23:51:23.083Z,70.40
2018-10-06T23:53:51.259Z,70.60
2018-10-06T23:56:19.354Z,70.70
2018-10-06T23:58:47.547Z,70.90
